Time;durP1;ratioP1;P1;durP2;ratioP2;P2;SDS_P1;SDS_P2;PMS_P1;PMS_P2;Temp;Humidity;BMP_temperature;BMP_pressure;BME280_temperature;BME280_humidity;BME280_pressure;Samples;Min_cycle;Max_cycle;Signal;HPM_P1;HPM_P2
2022/07/17 00:06:16;;;;;;;2.4;5.8;;;;;;;10.9;100;99210;;;;
2022/07/17 00:17:16;;;;;;;2.4;5.8;;;;;;;10.7;100;99220;;;;
2022/07/17 00:28:16;;;;;;;2.4;5.8;;;;;;;10.5;100;99220;;;;
2022/07/17 00:38:16;;;;;;;2.6;5.6;;;;;;;10.4;100;99230;;;;
2022/07/17 00:49:16;;;;;;;2.6;5.6;;;;;;;10.3;100;99230;;;;
2022/07/17 01:00:16;;;;;;;2.6;5.6;;;;;;;10.3;100;99240;;;;
2022/07/17 01:11:16;;;;;;;2.5;4.5;;;;;;;10.2;100;99240;;;;
2022/07/17 01:21:16;;;;;;;2.5;4.5;;;;;;;10.1;100;99240;;;;
2022/07/17 01:31:16;;;;;;;2.5;4.5;;;;;;;10;100;99240;;;;
2022/07/17 01:42:16;;;;;;;3.3;5.6;;;;;;;10;100;99240;;;;
2022/07/17 01:53:16;;;;;;;3.3;5.6;;;;;;;9.9;100;99240;;;;
2022/07/17 02:04:16;;;;;;;3.3;5.6;;;;;;;9.9;100;99250;;;;
2022/07/17 02:14:16;;;;;;;3.7;7.3;;;;;;;9.9;100;99250;;;;
2022/07/17 02:25:16;;;;;;;3.7;7.3;;;;;;;9.9;100;99250;;;;
2022/07/17 02:36:16;;;;;;;3.2;5.3;;;;;;;9.9;100;99240;;;;
2022/07/17 02:46:16;;;;;;;3.2;5.3;;;;;;;9.8;100;99240;;;;
2022/07/17 02:56:16;;;;;;;3.2;5.3;;;;;;;9.9;100;99260;;;;
2022/07/17 03:07:16;;;;;;;3.1;5.9;;;;;;;9.9;100;99260;;;;
2022/07/17 03:18:16;;;;;;;3.1;5.9;;;;;;;10;100;99270;;;;
2022/07/17 03:29:17;;;;;;;3.1;5.9;;;;;;;10.1;100;99270;;;;
2022/07/17 03:39:16;;;;;;;3.4;6.7;;;;;;;10.3;100;99290;;;;
2022/07/17 03:49:16;;;;;;;3.4;6.7;;;;;;;10.5;100;99290;;;;
2022/07/17 03:59:16;;;;;;;3.4;6.7;;;;;;;10.7;100;99300;;;;
2022/07/17 04:09:16;;;;;;;2.8;5.3;;;;;;;10.9;100;99300;;;;
2022/07/17 04:20:16;;;;;;;2.8;5.3;;;;;;;11.1;100;99310;;;;
2022/07/17 04:30:16;;;;;;;2.8;5.3;;;;;;;11.2;100;99320;;;;
2022/07/17 04:41:16;;;;;;;3.1;7.3;;;;;;;11.6;100;99330;;;;
2022/07/17 04:52:16;;;;;;;3.1;7.3;;;;;;;12;100;99340;;;;
2022/07/17 05:02:16;;;;;;;3.1;7.3;;;;;;;12.4;100;99350;;;;
2022/07/17 05:13:16;;;;;;;4.4;7.8;;;;;;;12.6;100;99350;;;;
2022/07/17 05:24:16;;;;;;;4.4;7.8;;;;;;;12.9;100;99360;;;;
2022/07/17 05:35:16;;;;;;;4.4;7.8;;;;;;;13.3;100;99370;;;;
2022/07/17 05:46:16;;;;;;;4.1;10.5;;;;;;;13.8;100;99380;;;;
2022/07/17 05:56:16;;;;;;;4.1;10.5;;;;;;;14.1;100;99390;;;;
2022/07/17 06:06:16;;;;;;;3.8;7.6;;;;;;;14.4;100;99400;;;;
2022/07/17 06:16:16;;;;;;;3.8;7.6;;;;;;;14.4;100;99400;;;;
2022/07/17 06:26:16;;;;;;;3.8;7.6;;;;;;;14.8;100;99410;;;;
2022/07/17 06:37:16;;;;;;;2.9;7.6;;;;;;;14.9;100;99420;;;;
2022/07/17 06:47:16;;;;;;;2.9;7.6;;;;;;;15.2;100;99420;;;;
2022/07/17 06:58:16;;;;;;;2.9;7.6;;;;;;;15.6;100;99420;;;;
2022/07/17 07:09:16;;;;;;;3;6.6;;;;;;;15.8;100;99430;;;;
2022/07/17 07:19:16;;;;;;;3;6.6;;;;;;;16.4;100;99440;;;;
2022/07/17 07:29:16;;;;;;;3;6.6;;;;;;;16.6;100;99440;;;;
2022/07/17 07:40:16;;;;;;;2;5.9;;;;;;;16.9;100;99430;;;;
2022/07/17 07:50:16;;;;;;;2;5.9;;;;;;;17;100;99430;;;;
2022/07/17 08:01:16;;;;;;;2;5.9;;;;;;;17.2;100;99440;;;;
2022/07/17 08:11:16;;;;;;;2.2;4.8;;;;;;;17.7;100;99450;;;;
2022/07/17 08:22:16;;;;;;;2.2;4.8;;;;;;;18.1;100;99450;;;;
2022/07/17 08:32:16;;;;;;;2.2;4.8;;;;;;;18.8;100;99470;;;;
2022/07/17 08:43:16;;;;;;;1.9;5.6;;;;;;;19.2;100;99470;;;;
2022/07/17 08:53:16;;;;;;;1.9;5.6;;;;;;;19.6;100;99480;;;;
2022/07/17 09:04:16;;;;;;;1.9;5.6;;;;;;;19.4;100;99460;;;;
2022/07/17 09:15:16;;;;;;;1.4;3.8;;;;;;;19.7;100;99480;;;;
2022/07/17 09:25:16;;;;;;;1.4;3.8;;;;;;;19.4;100;99490;;;;
2022/07/17 09:35:16;;;;;;;1.4;3.8;;;;;;;19.5;100;99480;;;;
2022/07/17 09:45:16;;;;;;;2;4.9;;;;;;;20.1;100;99480;;;;
2022/07/17 09:56:17;;;;;;;2;4.9;;;;;;;19.7;100;99470;;;;
2022/07/17 10:07:16;;;;;;;1.4;3.4;;;;;;;19.5;100;99490;;;;
2022/07/17 10:17:16;;;;;;;1.4;3.4;;;;;;;20.4;100;99480;;;;
2022/07/17 10:28:16;;;;;;;1.4;3.4;;;;;;;20.2;99.1;99490;;;;
2022/07/17 10:39:16;;;;;;;1.1;3.6;;;;;;;20.1;100;99490;;;;
2022/07/17 10:49:16;;;;;;;1.1;3.6;;;;;;;20.9;96.6;99500;;;;
2022/07/17 10:59:16;;;;;;;1.1;3.6;;;;;;;21.3;89.6;99490;;;;
2022/07/17 11:10:16;;;;;;;1.2;3;;;;;;;20.9;90.3;99490;;;;
2022/07/17 11:21:16;;;;;;;1.2;3;;;;;;;20.7;95.2;99480;;;;
2022/07/17 11:31:16;;;;;;;1.2;3;;;;;;;20.9;89.1;99480;;;;
2022/07/17 11:42:16;;;;;;;1.2;4.5;;;;;;;20.6;85.3;99480;;;;
2022/07/17 11:53:16;;;;;;;1.2;4.5;;;;;;;21.2;79.4;99480;;;;
2022/07/17 12:04:16;;;;;;;1.2;4.5;;;;;;;21.9;82.3;99480;;;;
2022/07/17 12:15:16;;;;;;;1.4;5.3;;;;;;;21.8;76.6;99470;;;;
2022/07/17 12:26:16;;;;;;;1.4;5.3;;;;;;;21.8;75.5;99460;;;;
2022/07/17 12:36:16;;;;;;;1.1;4.3;;;;;;;22;73.2;99460;;;;
2022/07/17 12:47:16;;;;;;;1.1;4.3;;;;;;;22.2;71.8;99450;;;;
2022/07/17 12:57:16;;;;;;;1.1;4.3;;;;;;;22.2;72.3;99460;;;;
2022/07/17 13:08:16;;;;;;;1.1;4;;;;;;;22.3;72.2;99450;;;;
2022/07/17 13:18:16;;;;;;;1.1;4;;;;;;;22.1;72.4;99450;;;;
2022/07/17 13:28:16;;;;;;;1.1;4;;;;;;;22.5;67.3;99450;;;;
2022/07/17 13:39:16;;;;;;;1.4;3.9;;;;;;;22.8;66.7;99440;;;;
2022/07/17 13:50:16;;;;;;;1.4;3.9;;;;;;;23;69.3;99430;;;;
2022/07/17 14:01:16;;;;;;;1.4;3.9;;;;;;;23.2;65;99440;;;;
2022/07/17 14:11:16;;;;;;;0.9;2.5;;;;;;;23.1;68.1;99430;;;;
2022/07/17 14:21:16;;;;;;;0.9;2.5;;;;;;;23.2;65;99430;;;;
2022/07/17 14:32:16;;;;;;;0.9;2.5;;;;;;;22.8;66.2;99430;;;;
2022/07/17 14:42:17;;;;;;;1;4.9;;;;;;;22.6;68;99430;;;;
2022/07/17 14:52:16;;;;;;;1;4.9;;;;;;;23.4;66.3;99410;;;;
2022/07/17 15:02:17;;;;;;;1;4.9;;;;;;;23.4;59.9;99410;;;;
2022/07/17 15:13:16;;;;;;;1.2;3.7;;;;;;;22.8;62.8;99410;;;;
2022/07/17 15:24:16;;;;;;;1.2;3.7;;;;;;;25.2;54.6;99410;;;;
2022/07/17 15:34:16;;;;;;;1.2;3.7;;;;;;;27.9;51.6;99420;;;;
2022/07/17 15:44:16;;;;;;;1.1;3.7;;;;;;;28.9;45.9;99410;;;;
2022/07/17 15:54:17;;;;;;;1.1;3.7;;;;;;;28.4;46.5;99400;;;;
2022/07/17 16:05:17;;;;;;;1.1;3.7;;;;;;;28.9;43.7;99400;;;;
2022/07/17 16:16:16;;;;;;;1.4;4.4;;;;;;;29.3;43.1;99400;;;;
2022/07/17 16:27:16;;;;;;;1.4;4.4;;;;;;;30.6;41.9;99400;;;;
2022/07/17 16:37:16;;;;;;;1.1;4.1;;;;;;;31.6;41;99390;;;;
2022/07/17 16:48:16;;;;;;;1.1;4.1;;;;;;;31.1;41;99380;;;;
2022/07/17 16:58:17;;;;;;;1.1;4.1;;;;;;;32;39.6;99380;;;;
2022/07/17 17:09:17;;;;;;;1.2;3.2;;;;;;;31.9;40.3;99370;;;;
2022/07/17 17:20:16;;;;;;;1.2;3.2;;;;;;;28;46.9;99360;;;;
2022/07/17 17:31:17;;;;;;;1.2;3.2;;;;;;;25.5;51.5;99360;;;;
2022/07/17 17:42:17;;;;;;;1.3;6.5;;;;;;;24.4;57.3;99350;;;;
2022/07/17 17:52:17;;;;;;;1.3;6.5;;;;;;;26.2;56.9;99350;;;;
2022/07/17 18:02:17;;;;;;;1.3;6.5;;;;;;;26.1;57.6;99360;;;;
2022/07/17 18:12:17;;;;;;;3;5.8;;;;;;;23.7;60.5;99360;;;;
2022/07/17 18:23:17;;;;;;;3;5.8;;;;;;;21.4;71.3;99360;;;;
2022/07/17 18:34:16;;;;;;;3;5.8;;;;;;;19.8;80;99350;;;;
2022/07/17 18:45:16;;;;;;;2;5;;;;;;;18.7;85.1;99360;;;;
2022/07/17 18:55:16;;;;;;;2;5;;;;;;;17.9;88.7;99370;;;;
2022/07/17 19:06:16;;;;;;;2.3;4.9;;;;;;;17.2;95;99380;;;;
2022/07/17 19:16:16;;;;;;;2.3;4.9;;;;;;;16.9;93.8;99400;;;;
2022/07/17 19:26:17;;;;;;;2.3;4.9;;;;;;;16.6;98.7;99420;;;;
2022/07/17 19:36:16;;;;;;;3.8;8.6;;;;;;;16.4;97.9;99430;;;;
2022/07/17 19:46:17;;;;;;;3.8;8.6;;;;;;;16.1;99.1;99440;;;;
2022/07/17 19:57:16;;;;;;;3.8;8.6;;;;;;;15.6;100;99440;;;;
2022/07/17 20:08:16;;;;;;;3.9;7.4;;;;;;;15.1;100;99440;;;;
2022/07/17 20:18:16;;;;;;;3.9;7.4;;;;;;;14.8;100;99430;;;;
2022/07/17 20:28:16;;;;;;;3.9;7.4;;;;;;;14.7;100;99430;;;;
2022/07/17 20:39:17;;;;;;;2.6;6.8;;;;;;;14.5;100;99450;;;;
2022/07/17 20:50:17;;;;;;;2.6;6.8;;;;;;;13.9;100;99450;;;;
2022/07/17 21:00:17;;;;;;;2.6;6.8;;;;;;;13.7;100;99450;;;;
2022/07/17 21:11:17;;;;;;;2.8;5.5;;;;;;;13.2;100;99450;;;;
2022/07/17 21:21:17;;;;;;;2.8;5.5;;;;;;;13.1;100;99460;;;;
2022/07/17 21:31:17;;;;;;;2.8;5.5;;;;;;;13;100;99460;;;;
2022/07/17 21:41:17;;;;;;;2.6;6.1;;;;;;;13.1;100;99460;;;;
2022/07/17 21:52:17;;;;;;;2.6;6.1;;;;;;;13.1;100;99470;;;;
2022/07/17 22:02:17;;;;;;;2.6;6.1;;;;;;;13;100;99470;;;;
2022/07/17 22:12:17;;;;;;;2.1;4.6;;;;;;;12.7;100;99480;;;;
2022/07/17 22:23:17;;;;;;;2.1;4.6;;;;;;;12.5;100;99480;;;;
2022/07/17 22:34:17;;;;;;;2.1;4.6;;;;;;;12.3;100;99480;;;;
2022/07/17 22:44:17;;;;;;;2.5;5.1;;;;;;;12.1;100;99470;;;;
2022/07/17 22:55:17;;;;;;;2.5;5.1;;;;;;;12.1;100;99480;;;;
2022/07/17 23:06:17;;;;;;;2.7;6.4;;;;;;;12;100;99480;;;;
2022/07/17 23:16:18;;;;;;;2.7;6.4;;;;;;;11.8;100;99490;;;;
2022/07/17 23:27:17;;;;;;;2.7;6.4;;;;;;;11.5;100;99480;;;;
2022/07/17 23:38:17;;;;;;;2;4.1;;;;;;;11.3;100;99490;;;;
2022/07/17 23:48:17;;;;;;;2;4.1;;;;;;;11.1;100;99490;;;;
2022/07/17 23:59:17;;;;;;;2;4.1;;;;;;;10.9;100;99490;;;;
